sensor_id;sensor_type;location;lat;lon;timestamp;pressure;altitude;pressure_sealevel;temperature;humidity
9415;BME280;4746;35.664;139.738;2024-03-23T00:55:25;100815.00;;;13.71;31.49
9415;BME280;4746;35.664;139.738;2024-03-23T00:57:52;100815.88;;;13.78;31.55
9415;BME280;4746;35.664;139.738;2024-03-23T01:00:23;100824.47;;;13.80;31.76
9415;BME280;4746;35.664;139.738;2024-03-23T01:02:51;100820.16;;;13.80;31.99
9415;BME280;4746;35.664;139.738;2024-03-23T01:05:21;100823.63;;;13.81;31.99
9415;BME280;4746;35.664;139.738;2024-03-23T01:07:49;100827.88;;;13.74;32.05
9415;BME280;4746;35.664;139.738;2024-03-23T01:10:16;100830.47;;;13.76;32.23
9415;BME280;4746;35.664;139.738;2024-03-23T01:12:44;100840.81;;;13.83;31.71
9415;BME280;4746;35.664;139.738;2024-03-23T01:15:13;100846.75;;;13.72;32.26
9415;BME280;4746;35.664;139.738;2024-03-23T01:17:40;100855.22;;;13.51;32.36
9415;BME280;4746;35.664;139.738;2024-03-23T01:20:09;100874.84;;;13.30;32.52
9415;BME280;4746;35.664;139.738;2024-03-23T01:22:37;100867.81;;;13.10;32.89
9415;BME280;4746;35.664;139.738;2024-03-23T01:25:05;100872.88;;;12.95;32.54
9415;BME280;4746;35.664;139.738;2024-03-23T01:27:32;100848.75;;;12.84;32.69
9415;BME280;4746;35.664;139.738;2024-03-23T01:30:09;100824.72;;;12.83;33.00
9415;BME280;4746;35.664;139.738;2024-03-23T01:32:36;100820.59;;;12.96;33.26
9415;BME280;4746;35.664;139.738;2024-03-23T01:35:04;100813.00;;;13.17;33.08
9415;BME280;4746;35.664;139.738;2024-03-23T01:37:32;100796.88;;;13.46;32.56
9415;BME280;4746;35.664;139.738;2024-03-23T01:40:02;100784.09;;;13.74;32.30
9415;BME280;4746;35.664;139.738;2024-03-23T01:42:31;100803.06;;;14.01;32.13
9415;BME280;4746;35.664;139.738;2024-03-23T01:44:58;100795.41;;;14.13;32.08
9415;BME280;4746;35.664;139.738;2024-03-23T01:47:29;100799.72;;;14.28;32.14
9415;BME280;4746;35.664;139.738;2024-03-23T01:49:57;100800.59;;;14.30;32.15
9415;BME280;4746;35.664;139.738;2024-03-23T01:52:25;100808.31;;;14.19;32.44
9415;BME280;4746;35.664;139.738;2024-03-23T01:54:52;100807.38;;;14.04;32.46
9415;BME280;4746;35.664;139.738;2024-03-23T01:57:20;100804.75;;;13.86;32.46
9415;BME280;4746;35.664;139.738;2024-03-23T01:59:49;100783.22;;;13.71;32.78
9415;BME280;4746;35.664;139.738;2024-03-23T02:02:17;100790.91;;;13.57;32.94
9415;BME280;4746;35.664;139.738;2024-03-23T02:04:46;100800.28;;;13.45;32.95
9415;BME280;4746;35.664;139.738;2024-03-23T02:07:14;100795.97;;;13.36;33.12
9415;BME280;4746;35.664;139.738;2024-03-23T02:09:41;100793.38;;;13.29;33.56
9415;BME280;4746;35.664;139.738;2024-03-23T02:12:10;100774.50;;;13.31;33.33
9415;BME280;4746;35.664;139.738;2024-03-23T02:14:38;100775.38;;;13.36;33.55
9415;BME280;4746;35.664;139.738;2024-03-23T02:17:05;100765.91;;;13.32;33.01
9415;BME280;4746;35.664;139.738;2024-03-23T02:19:34;100770.22;;;13.39;33.52
9415;BME280;4746;35.664;139.738;2024-03-23T02:22:02;100760.00;;;13.48;33.69
9415;BME280;4746;35.664;139.738;2024-03-23T02:24:30;100753.19;;;13.65;33.23
9415;BME280;4746;35.664;139.738;2024-03-23T02:26:58;100719.75;;;13.76;33.18
9415;BME280;4746;35.664;139.738;2024-03-23T02:29:25;100720.59;;;13.91;33.19
9415;BME280;4746;35.664;139.738;2024-03-23T02:31:53;100719.78;;;14.02;33.36
9415;BME280;4746;35.664;139.738;2024-03-23T02:34:20;100723.19;;;14.03;33.31
9415;BME280;4746;35.664;139.738;2024-03-23T02:36:48;100716.38;;;14.09;33.25
9415;BME280;4746;35.664;139.738;2024-03-23T02:39:16;100713.78;;;14.12;33.50
9415;BME280;4746;35.664;139.738;2024-03-23T02:41:45;100718.97;;;14.14;33.66
9415;BME280;4746;35.664;139.738;2024-03-23T02:44:14;100732.69;;;14.11;33.73
9415;BME280;4746;35.664;139.738;2024-03-23T02:46:42;100710.31;;;14.09;33.66
9415;BME280;4746;35.664;139.738;2024-03-23T02:49:09;100720.66;;;14.15;33.80
9415;BME280;4746;35.664;139.738;2024-03-23T02:51:37;100717.25;;;14.22;33.90
9415;BME280;4746;35.664;139.738;2024-03-23T02:54:04;100713.78;;;14.38;34.02
9415;BME280;4746;35.664;139.738;2024-03-23T02:56:33;100705.16;;;14.68;33.89
9415;BME280;4746;35.664;139.738;2024-03-23T02:59:01;100695.63;;;15.03;33.65
9415;BME280;4746;35.664;139.738;2024-03-23T03:01:28;100696.44;;;15.28;33.01
9415;BME280;4746;35.664;139.738;2024-03-23T03:03:56;100674.88;;;15.36;33.11
9415;BME280;4746;35.664;139.738;2024-03-23T03:06:27;100659.34;;;15.40;33.08
9415;BME280;4746;35.664;139.738;2024-03-23T03:08:55;100660.16;;;15.53;32.97
9415;BME280;4746;35.664;139.738;2024-03-23T03:11:23;100659.19;;;15.72;32.38
9415;BME280;4746;35.664;139.738;2024-03-23T03:13:50;100640.03;;;15.95;32.47
9415;BME280;4746;35.664;139.738;2024-03-23T03:16:18;100656.19;;;16.22;32.21
9415;BME280;4746;35.664;139.738;2024-03-23T03:18:45;100661.25;;;16.37;32.11
9415;BME280;4746;35.664;139.738;2024-03-23T03:21:13;100653.50;;;16.39;31.83
9415;BME280;4746;35.664;139.738;2024-03-23T03:23:41;100649.34;;;16.15;32.07
9415;BME280;4746;35.664;139.738;2024-03-23T03:26:09;100643.47;;;15.96;32.24
9415;BME280;4746;35.664;139.738;2024-03-23T03:28:37;100637.56;;;15.79;32.25
9415;BME280;4746;35.664;139.738;2024-03-23T03:31:04;100635.00;;;15.80;32.86
9415;BME280;4746;35.664;139.738;2024-03-23T03:33:32;100632.38;;;15.85;33.13
9415;BME280;4746;35.664;139.738;2024-03-23T03:35:59;100616.00;;;15.89;33.17
9415;BME280;4746;35.664;139.738;2024-03-23T03:38:27;100618.47;;;16.00;32.94
9415;BME280;4746;35.664;139.738;2024-03-23T03:40:54;100628.72;;;16.12;33.17
9415;BME280;4746;35.664;139.738;2024-03-23T03:43:22;100612.22;;;16.24;32.95
9415;BME280;4746;35.664;139.738;2024-03-23T03:45:57;100595.75;;;16.34;32.73
9415;BME280;4746;35.664;139.738;2024-03-23T03:48:25;100600.03;;;16.36;32.65
9415;BME280;4746;35.664;139.738;2024-03-23T03:50:53;100611.28;;;16.32;32.86
9415;BME280;4746;35.664;139.738;2024-03-23T03:53:21;100597.56;;;16.24;32.79
9415;BME280;4746;35.664;139.738;2024-03-23T03:55:48;100584.69;;;16.17;32.95
9415;BME280;4746;35.664;139.738;2024-03-23T03:58:16;100590.03;;;16.02;33.28
9415;BME280;4746;35.664;139.738;2024-03-23T04:00:43;100587.56;;;15.86;33.39
9415;BME280;4746;35.664;139.738;2024-03-23T04:03:11;100579.00;;;15.81;33.75
9415;BME280;4746;35.664;139.738;2024-03-23T04:05:39;100567.59;;;16.04;33.56
9415;BME280;4746;35.664;139.738;2024-03-23T04:08:09;100562.00;;;16.46;33.30
9415;BME280;4746;35.664;139.738;2024-03-23T04:10:36;100563.19;;;16.91;32.92
9415;BME280;4746;35.664;139.738;2024-03-23T04:13:04;100548.03;;;17.28;32.26
9415;BME280;4746;35.664;139.738;2024-03-23T04:15:31;100532.94;;;17.53;32.21
9415;BME280;4746;35.664;139.738;2024-03-23T04:17:59;100522.72;;;17.94;31.76
9415;BME280;4746;35.664;139.738;2024-03-23T04:20:26;100499.75;;;18.23;31.06
9415;BME280;4746;35.664;139.738;2024-03-23T04:22:56;100485.22;;;18.57;31.06
9415;BME280;4746;35.664;139.738;2024-03-23T04:25:24;100481.31;;;19.15;30.77
9415;BME280;4746;35.664;139.738;2024-03-23T04:27:51;100468.66;;;20.04;29.73
9415;BME280;4746;35.664;139.738;2024-03-23T04:30:19;100459.47;;;20.52;29.14
9415;BME280;4746;35.664;139.738;2024-03-23T04:32:47;100462.56;;;20.64;28.69
9415;BME280;4746;35.664;139.738;2024-03-23T04:35:15;100464.28;;;20.36;28.59
9415;BME280;4746;35.664;139.738;2024-03-23T04:37:43;100461.13;;;19.94;29.12
9415;BME280;4746;35.664;139.738;2024-03-23T04:40:10;100448.16;;;19.59;29.45
9415;BME280;4746;35.664;139.738;2024-03-23T04:42:38;100443.28;;;19.49;30.05
9415;BME280;4746;35.664;139.738;2024-03-23T04:45:06;100425.91;;;19.49;30.04
9415;BME280;4746;35.664;139.738;2024-03-23T04:47:34;100422.47;;;19.49;30.09
9415;BME280;4746;35.664;139.738;2024-03-23T04:50:03;100414.69;;;19.49;30.09
9415;BME280;4746;35.664;139.738;2024-03-23T04:52:32;100431.31;;;19.40;30.26
9415;BME280;4746;35.664;139.738;2024-03-23T04:54:59;100439.06;;;19.07;30.27
9415;BME280;4746;35.664;139.738;2024-03-23T04:57:27;100426.28;;;18.62;31.02
9415;BME280;4746;35.664;139.738;2024-03-23T04:59:54;100426.06;;;18.33;31.50
9415;BME280;4746;35.664;139.738;2024-03-23T05:02:22;100426.47;;;18.10;31.81
9415;BME280;4746;35.664;139.738;2024-03-23T05:04:49;100431.28;;;17.86;32.08
9415;BME280;4746;35.664;139.738;2024-03-23T05:07:17;100401.41;;;17.67;32.39
9415;BME280;4746;35.664;139.738;2024-03-23T05:09:44;100386.91;;;17.57;32.32
9415;BME280;4746;35.664;139.738;2024-03-23T05:12:12;100370.50;;;17.57;32.78
9415;BME280;4746;35.664;139.738;2024-03-23T05:14:39;100367.81;;;17.61;33.23
9415;BME280;4746;35.664;139.738;2024-03-23T05:17:07;100359.66;;;17.81;32.59
9415;BME280;4746;35.664;139.738;2024-03-23T05:19:34;100365.97;;;18.51;31.78
9415;BME280;4746;35.664;139.738;2024-03-23T05:22:02;100378.19;;;19.52;30.78
9415;BME280;4746;35.664;139.738;2024-03-23T05:24:29;100383.59;;;20.36;29.95
9415;BME280;4746;35.664;139.738;2024-03-23T05:26:57;100373.38;;;21.37;28.41
9415;BME280;4746;35.664;139.738;2024-03-23T05:29:26;100369.69;;;20.92;28.50
9415;BME280;4746;35.664;139.738;2024-03-23T05:31:53;100360.75;;;20.99;28.98
9415;BME280;4746;35.664;139.738;2024-03-23T05:34:23;100363.38;;;21.25;28.85
9415;BME280;4746;35.664;139.738;2024-03-23T05:36:52;100364.78;;;21.09;28.89
9415;BME280;4746;35.664;139.738;2024-03-23T05:39:19;100365.88;;;20.76;29.04
9415;BME280;4746;35.664;139.738;2024-03-23T05:41:49;100369.84;;;20.31;29.52
9415;BME280;4746;35.664;139.738;2024-03-23T05:44:17;100366.97;;;19.81;29.96
9415;BME280;4746;35.664;139.738;2024-03-23T05:46:45;100359.47;;;19.39;30.49
9415;BME280;4746;35.664;139.738;2024-03-23T05:49:16;100364.84;;;18.98;31.14
9415;BME280;4746;35.664;139.738;2024-03-23T05:51:44;100358.84;;;18.59;32.02
9415;BME280;4746;35.664;139.738;2024-03-23T05:54:12;100366.38;;;18.33;32.66
9415;BME280;4746;35.664;139.738;2024-03-23T05:56:39;100362.28;;;18.23;32.42
9415;BME280;4746;35.664;139.738;2024-03-23T05:59:07;100353.84;;;18.10;32.84
9415;BME280;4746;35.664;139.738;2024-03-23T06:01:34;100352.25;;;18.05;32.99
9415;BME280;4746;35.664;139.738;2024-03-23T06:04:02;100356.00;;;17.92;33.28
9415;BME280;4746;35.664;139.738;2024-03-23T06:06:30;100355.34;;;17.81;33.10
9415;BME280;4746;35.664;139.738;2024-03-23T06:08:57;100357.44;;;17.64;33.53
9415;BME280;4746;35.664;139.738;2024-03-23T06:11:25;100343.66;;;17.61;34.00
9415;BME280;4746;35.664;139.738;2024-03-23T06:13:53;100329.56;;;17.75;34.15
9415;BME280;4746;35.664;139.738;2024-03-23T06:16:20;100344.78;;;17.90;34.11
9415;BME280;4746;35.664;139.738;2024-03-23T06:18:52;100340.84;;;17.73;34.18
9415;BME280;4746;35.664;139.738;2024-03-23T06:21:19;100333.03;;;17.74;34.05
9415;BME280;4746;35.664;139.738;2024-03-23T06:23:47;100327.72;;;17.80;33.64
9415;BME280;4746;35.664;139.738;2024-03-23T06:26:21;100323.34;;;17.82;33.93
9415;BME280;4746;35.664;139.738;2024-03-23T06:28:49;100317.63;;;18.06;33.87
9415;BME280;4746;35.664;139.738;2024-03-23T06:31:17;100305.16;;;18.95;33.33
9415;BME280;4746;35.664;139.738;2024-03-23T06:33:44;100311.88;;;19.37;32.59
9415;BME280;4746;35.664;139.738;2024-03-23T06:36:12;100296.84;;;19.48;32.77
9415;BME280;4746;35.664;139.738;2024-03-23T06:38:40;100275.97;;;20.37;31.46
9415;BME280;4746;35.664;139.738;2024-03-23T06:41:08;100282.50;;;20.50;31.17
9415;BME280;4746;35.664;139.738;2024-03-23T06:43:35;100277.44;;;20.19;31.23
9415;BME280;4746;35.664;139.738;2024-03-23T06:46:05;100270.63;;;19.86;31.48
9415;BME280;4746;35.664;139.738;2024-03-23T06:48:32;100267.00;;;19.61;31.60
9415;BME280;4746;35.664;139.738;2024-03-23T06:51:00;100266.13;;;19.62;32.10
9415;BME280;4746;35.664;139.738;2024-03-23T06:53:27;100255.81;;;19.88;31.56
9415;BME280;4746;35.664;139.738;2024-03-23T06:55:55;100262.63;;;19.63;31.70
9415;BME280;4746;35.664;139.738;2024-03-23T06:58:25;100256.66;;;19.29;31.99
9415;BME280;4746;35.664;139.738;2024-03-23T07:00:52;100241.56;;;19.11;32.46
9415;BME280;4746;35.664;139.738;2024-03-23T07:03:20;100243.75;;;19.26;32.19
9415;BME280;4746;35.664;139.738;2024-03-23T07:05:48;100241.25;;;19.82;32.13
9415;BME280;4746;35.664;139.738;2024-03-23T07:08:16;100231.16;;;21.05;30.88
9415;BME280;4746;35.664;139.738;2024-03-23T07:10:49;100242.28;;;21.58;29.68
9415;BME280;4746;35.664;139.738;2024-03-23T07:13:16;100242.22;;;20.86;30.59
9415;BME280;4746;35.664;139.738;2024-03-23T07:15:52;100233.38;;;20.13;31.59
9415;BME280;4746;35.664;139.738;2024-03-23T07:18:23;100242.69;;;19.63;32.03
9415;BME280;4746;35.664;139.738;2024-03-23T07:20:59;100237.34;;;19.39;32.08
9415;BME280;4746;35.664;139.738;2024-03-23T07:23:27;100250.56;;;18.97;32.63
9415;BME280;4746;35.664;139.738;2024-03-23T07:26:03;100240.81;;;18.75;32.89
9415;BME280;4746;35.664;139.738;2024-03-23T07:28:34;100230.16;;;18.52;33.14
9415;BME280;4746;35.664;139.738;2024-03-23T07:31:05;100223.94;;;18.22;33.66
9415;BME280;4746;35.664;139.738;2024-03-23T07:33:34;100221.19;;;17.92;33.56
9415;BME280;4746;35.664;139.738;2024-03-23T07:36:02;100217.53;;;17.61;34.49
9415;BME280;4746;35.664;139.738;2024-03-23T07:38:30;100224.94;;;17.39;34.82
9415;BME280;4746;35.664;139.738;2024-03-23T07:41:23;100223.44;;;17.26;34.54
9415;BME280;4746;35.664;139.738;2024-03-23T07:43:51;100242.16;;;16.94;35.11
9415;BME280;4746;35.664;139.738;2024-03-23T07:46:18;100191.59;;;16.77;35.67
9415;BME280;4746;35.664;139.738;2024-03-23T07:48:47;100229.84;;;16.60;35.58
9415;BME280;4746;35.664;139.738;2024-03-23T07:51:23;100233.53;;;16.46;35.42
9415;BME280;4746;35.664;139.738;2024-03-23T07:53:52;100223.38;;;16.35;36.16
9415;BME280;4746;35.664;139.738;2024-03-23T07:56:20;100209.78;;;16.21;35.89
9415;BME280;4746;35.664;139.738;2024-03-23T07:58:49;100230.63;;;16.09;36.26
9415;BME280;4746;35.664;139.738;2024-03-23T08:01:17;100226.53;;;15.95;36.40
9415;BME280;4746;35.664;139.738;2024-03-23T08:03:46;100205.91;;;15.94;36.75
9415;BME280;4746;35.664;139.738;2024-03-23T08:06:19;100231.03;;;15.84;36.43
9415;BME280;4746;35.664;139.738;2024-03-23T08:08:55;100207.78;;;15.83;36.75
9415;BME280;4746;35.664;139.738;2024-03-23T08:11:30;100232.94;;;15.72;36.63
9415;BME280;4746;35.664;139.738;2024-03-23T08:13:59;100216.69;;;15.62;36.84
9415;BME280;4746;35.664;139.738;2024-03-23T08:16:26;100240.00;;;15.55;37.31
9415;BME280;4746;35.664;139.738;2024-03-23T08:18:54;100222.09;;;15.44;37.23
9415;BME280;4746;35.664;139.738;2024-03-23T08:21:24;100212.66;;;15.40;37.15
9415;BME280;4746;35.664;139.738;2024-03-23T08:23:53;100230.81;;;15.36;37.35
9415;BME280;4746;35.664;139.738;2024-03-23T08:26:20;100212.81;;;15.27;37.62
9415;BME280;4746;35.664;139.738;2024-03-23T08:28:48;100221.47;;;15.20;37.37
9415;BME280;4746;35.664;139.738;2024-03-23T08:31:17;100214.69;;;15.12;37.44
9415;BME280;4746;35.664;139.738;2024-03-23T08:33:44;100216.44;;;15.11;38.00
9415;BME280;4746;35.664;139.738;2024-03-23T08:36:13;100212.19;;;15.04;38.07
9415;BME280;4746;35.664;139.738;2024-03-23T08:38:41;100209.66;;;15.00;37.79
9415;BME280;4746;35.664;139.738;2024-03-23T08:41:10;100220.00;;;14.98;38.22
9415;BME280;4746;35.664;139.738;2024-03-23T08:43:42;100211.41;;;14.96;38.05
9415;BME280;4746;35.664;139.738;2024-03-23T08:46:15;100216.69;;;14.87;38.33
9415;BME280;4746;35.664;139.738;2024-03-23T08:48:47;100222.75;;;14.82;38.22
9415;BME280;4746;35.664;139.738;2024-03-23T08:51:18;100228.91;;;14.67;38.55
9415;BME280;4746;35.664;139.738;2024-03-23T08:53:46;100225.63;;;14.54;38.67
9415;BME280;4746;35.664;139.738;2024-03-23T08:56:14;100220.56;;;14.39;39.54
9415;BME280;4746;35.664;139.738;2024-03-23T08:58:41;100241.34;;;14.24;39.57
9415;BME280;4746;35.664;139.738;2024-03-23T09:01:13;100222.53;;;14.10;39.48
9415;BME280;4746;35.664;139.738;2024-03-23T09:03:41;100244.94;;;13.96;39.65
9415;BME280;4746;35.664;139.738;2024-03-23T09:06:14;100247.53;;;13.87;39.79
9415;BME280;4746;35.664;139.738;2024-03-23T09:08:42;100233.06;;;13.71;39.95
9415;BME280;4746;35.664;139.738;2024-03-23T09:11:12;100235.66;;;13.64;40.20
9415;BME280;4746;35.664;139.738;2024-03-23T09:13:40;100227.13;;;13.54;40.78
9415;BME280;4746;35.664;139.738;2024-03-23T09:16:11;100240.03;;;13.48;40.88
9415;BME280;4746;35.664;139.738;2024-03-23T09:18:39;100246.03;;;13.44;40.90
9415;BME280;4746;35.664;139.738;2024-03-23T09:21:13;100242.63;;;13.44;41.20
9415;BME280;4746;35.664;139.738;2024-03-23T09:23:44;100246.91;;;13.40;41.10
9415;BME280;4746;35.664;139.738;2024-03-23T09:26:12;100242.63;;;13.38;41.24
9415;BME280;4746;35.664;139.738;2024-03-23T09:28:40;100257.22;;;13.34;41.08
9415;BME280;4746;35.664;139.738;2024-03-23T09:31:09;100255.50;;;13.33;41.47
9415;BME280;4746;35.664;139.738;2024-03-23T09:33:41;100250.41;;;13.30;41.47
9415;BME280;4746;35.664;139.738;2024-03-23T09:36:11;100246.06;;;13.32;41.27
9415;BME280;4746;35.664;139.738;2024-03-23T09:38:42;100251.25;;;13.31;41.07
9415;BME280;4746;35.664;139.738;2024-03-23T09:41:10;100250.41;;;13.30;41.00
9415;BME280;4746;35.664;139.738;2024-03-23T09:43:38;100264.97;;;13.31;41.23
9415;BME280;4746;35.664;139.738;2024-03-23T09:46:08;100263.22;;;13.38;41.07
9415;BME280;4746;35.664;139.738;2024-03-23T09:48:38;100262.38;;;13.37;41.01
9415;BME280;4746;35.664;139.738;2024-03-23T09:51:06;100264.06;;;13.38;40.87
9415;BME280;4746;35.664;139.738;2024-03-23T09:53:37;100264.06;;;13.43;41.13
9415;BME280;4746;35.664;139.738;2024-03-23T09:56:06;100258.91;;;13.44;40.98
9415;BME280;4746;35.664;139.738;2024-03-23T09:58:35;100277.75;;;13.48;41.00
9415;BME280;4746;35.664;139.738;2024-03-23T10:01:03;100284.63;;;13.52;41.17
9415;BME280;4746;35.664;139.738;2024-03-23T10:03:30;100285.47;;;13.54;41.09
9415;BME280;4746;35.664;139.738;2024-03-23T10:06:05;100279.44;;;13.59;40.97
9415;BME280;4746;35.664;139.738;2024-03-23T10:08:32;100283.72;;;13.59;40.41
9415;BME280;4746;35.664;139.738;2024-03-23T10:11:14;100280.28;;;13.66;40.90
9415;BME280;4746;35.664;139.738;2024-03-23T10:13:43;100290.56;;;13.66;40.94
9415;BME280;4746;35.664;139.738;2024-03-23T10:16:21;100295.72;;;13.70;40.82
9415;BME280;4746;35.664;139.738;2024-03-23T10:18:50;100288.00;;;13.67;40.55
9415;BME280;4746;35.664;139.738;2024-03-23T10:21:18;100284.56;;;13.67;40.46
9415;BME280;4746;35.664;139.738;2024-03-23T10:23:46;100294.88;;;13.65;40.86
9415;BME280;4746;35.664;139.738;2024-03-23T10:26:19;100304.31;;;13.68;40.54
9415;BME280;4746;35.664;139.738;2024-03-23T10:28:59;100301.75;;;13.66;40.60
9415;BME280;4746;35.664;139.738;2024-03-23T10:31:38;100315.50;;;13.59;40.84
9415;BME280;4746;35.664;139.738;2024-03-23T10:34:08;100313.78;;;13.58;40.43
9415;BME280;4746;35.664;139.738;2024-03-23T10:36:41;100313.78;;;13.58;40.68
9415;BME280;4746;35.664;139.738;2024-03-23T10:39:12;100328.38;;;13.55;40.88
9415;BME280;4746;35.664;139.738;2024-03-23T10:41:45;100330.09;;;13.51;40.73
9415;BME280;4746;35.664;139.738;2024-03-23T10:44:13;100329.25;;;13.46;41.03
9415;BME280;4746;35.664;139.738;2024-03-23T10:46:41;100343.00;;;13.44;41.18
9415;BME280;4746;35.664;139.738;2024-03-23T10:49:09;100354.16;;;13.43;41.20
9415;BME280;4746;35.664;139.738;2024-03-23T10:51:37;100354.16;;;13.40;41.32
9415;BME280;4746;35.664;139.738;2024-03-23T10:54:08;100352.44;;;13.39;41.36
9415;BME280;4746;35.664;139.738;2024-03-23T10:56:41;100364.47;;;13.35;41.57
9415;BME280;4746;35.664;139.738;2024-03-23T10:59:09;100367.03;;;13.35;41.48
9415;BME280;4746;35.664;139.738;2024-03-23T11:01:56;100364.47;;;13.40;41.50
9415;BME280;4746;35.664;139.738;2024-03-23T11:04:37;100367.03;;;13.35;41.31
9415;BME280;4746;35.664;139.738;2024-03-23T11:07:28;100364.47;;;13.34;41.67
9415;BME280;4746;35.664;139.738;2024-03-23T11:09:58;100376.47;;;13.32;41.70
9415;BME280;4746;35.664;139.738;2024-03-23T11:12:27;100397.91;;;13.31;41.69
9415;BME280;4746;35.664;139.738;2024-03-23T11:15:11;100387.63;;;13.31;41.60
9415;BME280;4746;35.664;139.738;2024-03-23T11:17:39;100390.19;;;13.31;41.86
9415;BME280;4746;35.664;139.738;2024-03-23T11:20:07;100391.03;;;13.34;41.89
9415;BME280;4746;35.664;139.738;2024-03-23T11:22:41;100377.31;;;13.38;42.23
9415;BME280;4746;35.664;139.738;2024-03-23T11:25:27;100380.75;;;13.40;41.78
9415;BME280;4746;35.664;139.738;2024-03-23T11:28:11;100380.75;;;13.39;41.66
9415;BME280;4746;35.664;139.738;2024-03-23T11:30:38;100397.06;;;13.35;41.80
9415;BME280;4746;35.664;139.738;2024-03-23T11:33:08;100380.75;;;13.37;41.83
9415;BME280;4746;35.664;139.738;2024-03-23T11:35:40;100403.06;;;13.40;41.69
9415;BME280;4746;35.664;139.738;2024-03-23T11:38:11;100399.63;;;13.39;42.01
9415;BME280;4746;35.664;139.738;2024-03-23T11:40:40;100408.19;;;13.38;41.69
9415;BME280;4746;35.664;139.738;2024-03-23T11:43:20;100399.63;;;13.42;41.94
9415;BME280;4746;35.664;139.738;2024-03-23T11:45:53;100403.06;;;13.41;42.13
9415;BME280;4746;35.664;139.738;2024-03-23T11:48:23;100418.50;;;13.41;41.94
9415;BME280;4746;35.664;139.738;2024-03-23T11:50:56;100403.06;;;13.41;41.80
9415;BME280;4746;35.664;139.738;2024-03-23T11:53:25;100407.34;;;13.41;42.10
9415;BME280;4746;35.664;139.738;2024-03-23T11:55:59;100406.47;;;13.40;42.22
9415;BME280;4746;35.664;139.738;2024-03-23T11:58:30;100403.03;;;13.38;41.92
9415;BME280;4746;35.664;139.738;2024-03-23T12:00:59;100403.06;;;13.41;42.32
9415;BME280;4746;35.664;139.738;2024-03-23T12:03:27;100418.50;;;13.41;42.10
9415;BME280;4746;35.664;139.738;2024-03-23T12:05:58;100413.31;;;13.44;42.18
9415;BME280;4746;35.664;139.738;2024-03-23T12:08:30;100405.63;;;13.43;42.30
9415;BME280;4746;35.664;139.738;2024-03-23T12:11:12;100412.47;;;13.45;42.24
9415;BME280;4746;35.664;139.738;2024-03-23T12:13:43;100415.91;;;13.41;42.48
9415;BME280;4746;35.664;139.738;2024-03-23T12:16:21;100415.91;;;13.46;43.01
9415;BME280;4746;35.664;139.738;2024-03-23T12:19:05;100421.94;;;13.49;42.90
9415;BME280;4746;35.664;139.738;2024-03-23T12:21:33;100427.91;;;13.54;42.99
9415;BME280;4746;35.664;139.738;2024-03-23T12:24:01;100435.63;;;13.60;42.91
9415;BME280;4746;35.664;139.738;2024-03-23T12:26:28;100439.91;;;13.67;42.79
9415;BME280;4746;35.664;139.738;2024-03-23T12:28:56;100439.03;;;13.68;42.55
9415;BME280;4746;35.664;139.738;2024-03-23T12:31:23;100456.19;;;13.69;42.54
9415;BME280;4746;35.664;139.738;2024-03-23T12:33:51;100463.94;;;13.69;42.45
9415;BME280;4746;35.664;139.738;2024-03-23T12:36:19;100463.06;;;13.70;42.64
9415;BME280;4746;35.664;139.738;2024-03-23T12:38:46;100463.91;;;13.71;42.39
9415;BME280;4746;35.664;139.738;2024-03-23T12:41:16;100469.94;;;13.71;42.25
9415;BME280;4746;35.664;139.738;2024-03-23T12:43:44;100471.66;;;13.69;42.21
9415;BME280;4746;35.664;139.738;2024-03-23T12:46:12;100470.81;;;13.67;42.35
9415;BME280;4746;35.664;139.738;2024-03-23T12:48:39;100463.94;;;13.66;42.15
9415;BME280;4746;35.664;139.738;2024-03-23T12:51:09;100463.06;;;13.64;42.26
9415;BME280;4746;35.664;139.738;2024-03-23T12:53:36;100466.53;;;13.60;42.15
9415;BME280;4746;35.664;139.738;2024-03-23T12:56:04;100463.94;;;13.57;42.24
9415;BME280;4746;35.664;139.738;2024-03-23T12:58:31;100453.66;;;13.54;42.41
9415;BME280;4746;35.664;139.738;2024-03-23T13:01:02;100456.22;;;13.56;42.31
9415;BME280;4746;35.664;139.738;2024-03-23T13:03:30;100460.53;;;13.55;42.50
9415;BME280;4746;35.664;139.738;2024-03-23T13:05:58;100464.81;;;13.58;42.42
9415;BME280;4746;35.664;139.738;2024-03-23T13:08:26;100471.69;;;13.60;42.45
9415;BME280;4746;35.664;139.738;2024-03-23T13:10:53;100474.25;;;13.62;42.42
9415;BME280;4746;35.664;139.738;2024-03-23T13:13:22;100475.97;;;13.63;42.32
9415;BME280;4746;35.664;139.738;2024-03-23T13:15:52;100488.81;;;13.64;42.36
9415;BME280;4746;35.664;139.738;2024-03-23T13:18:20;100481.97;;;13.60;42.26
9415;BME280;4746;35.664;139.738;2024-03-23T13:20:47;100471.66;;;13.57;42.39
9415;BME280;4746;35.664;139.738;2024-03-23T13:23:15;100474.25;;;13.56;42.50
9415;BME280;4746;35.664;139.738;2024-03-23T13:25:51;100474.22;;;13.59;42.41
9415;BME280;4746;35.664;139.738;2024-03-23T13:28:21;100479.41;;;13.56;42.47
9415;BME280;4746;35.664;139.738;2024-03-23T13:30:58;100483.69;;;13.58;42.22
9415;BME280;4746;35.664;139.738;2024-03-23T13:33:31;100483.69;;;13.55;42.57
9415;BME280;4746;35.664;139.738;2024-03-23T13:36:01;100484.53;;;13.57;42.62
9415;BME280;4746;35.664;139.738;2024-03-23T13:38:30;100478.56;;;13.55;42.59
9415;BME280;4746;35.664;139.738;2024-03-23T13:40:59;100486.25;;;13.60;42.58
9415;BME280;4746;35.664;139.738;2024-03-23T13:43:28;100480.25;;;13.62;42.56
9415;BME280;4746;35.664;139.738;2024-03-23T13:45:59;100477.66;;;13.67;42.72
9415;BME280;4746;35.664;139.738;2024-03-23T13:48:28;100478.53;;;13.67;42.71
9415;BME280;4746;35.664;139.738;2024-03-23T13:51:03;100480.22;;;13.68;42.49
9415;BME280;4746;35.664;139.738;2024-03-23T13:53:32;100481.09;;;13.69;42.67
9415;BME280;4746;35.664;139.738;2024-03-23T13:56:02;100489.69;;;13.66;42.72